createdAt,value
2022-08-30T00:00:40.046Z,24.40
2022-08-30T00:03:14.801Z,24.25
2022-08-30T00:05:45.485Z,24.49
2022-08-30T00:08:15.154Z,24.38
2022-08-30T00:10:44.282Z,24.01
2022-08-30T00:13:14.938Z,24.22
2022-08-30T00:15:44.040Z,24.10
2022-08-30T00:18:15.845Z,23.86
2022-08-30T00:20:45.628Z,24.17
2022-08-30T00:23:15.063Z,23.48
2022-08-30T00:25:44.638Z,24.15
2022-08-30T00:28:13.871Z,23.87
2022-08-30T00:30:43.530Z,24.06
2022-08-30T00:33:15.550Z,23.84
2022-08-30T00:35:44.835Z,23.79
2022-08-30T00:38:14.967Z,23.94
2022-08-30T00:40:45.898Z,23.99
2022-08-30T00:43:18.138Z,23.86
2022-08-30T00:45:48.427Z,23.78
2022-08-30T00:48:19.040Z,23.60
2022-08-30T00:50:50.708Z,23.66
2022-08-30T00:53:23.178Z,23.39
2022-08-30T00:55:53.613Z,23.37
2022-08-30T00:58:28.272Z,23.45
2022-08-30T01:00:59.690Z,23.54
2022-08-30T01:03:31.650Z,23.29
2022-08-30T01:06:02.808Z,23.55
2022-08-30T01:08:31.967Z,23.15
2022-08-30T01:11:01.498Z,23.16
2022-08-30T01:13:31.710Z,23.09
2022-08-30T01:16:01.515Z,23.01
2022-08-30T01:18:33.176Z,23.17
2022-08-30T01:21:10.827Z,23.34
2022-08-30T01:23:44.271Z,23.20
2022-08-30T01:26:15.973Z,23.21
2022-08-30T01:28:48.017Z,23.13
2022-08-30T01:31:17.397Z,23.13
2022-08-30T01:33:46.551Z,23.14
2022-08-30T01:36:15.897Z,23.08
2022-08-30T01:38:49.257Z,22.83
2022-08-30T01:41:21.525Z,22.82
2022-08-30T01:43:52.308Z,22.94
2022-08-30T01:46:24.667Z,22.81
2022-08-30T01:48:56.145Z,23.05
2022-08-30T01:51:27.670Z,22.92
2022-08-30T01:53:58.334Z,22.80
2022-08-30T01:56:29.050Z,22.60
2022-08-30T01:59:02.410Z,22.47
2022-08-30T02:01:34.151Z,22.71
2022-08-30T02:04:03.804Z,22.49
2022-08-30T02:06:33.009Z,22.45
2022-08-30T02:09:03.283Z,22.42
2022-08-30T02:11:32.502Z,22.54
2022-08-30T02:14:01.425Z,22.83
2022-08-30T02:16:30.507Z,22.55
2022-08-30T02:19:00.308Z,22.39
2022-08-30T02:21:32.146Z,22.34
2022-08-30T02:24:02.582Z,22.31
2022-08-30T02:26:31.504Z,22.38
2022-08-30T02:29:01.447Z,22.43
2022-08-30T02:31:30.333Z,22.46
2022-08-30T02:33:59.204Z,22.26
2022-08-30T02:36:28.193Z,22.52
2022-08-30T02:38:56.994Z,22.23
2022-08-30T02:41:27.156Z,22.27
2022-08-30T02:43:58.591Z,22.12
2022-08-30T02:46:28.399Z,21.96
2022-08-30T02:49:23.767Z,22.09
2022-08-30T02:51:51.742Z,22.27
2022-08-30T02:54:20.851Z,22.18
2022-08-30T02:56:51.821Z,22.12
2022-08-30T02:59:21.085Z,22.18
2022-08-30T03:01:50.217Z,21.72
2022-08-30T03:04:20.307Z,22.01
2022-08-30T03:06:56.006Z,21.73
2022-08-30T03:09:24.790Z,21.59
2022-08-30T03:11:55.123Z,21.70
2022-08-30T03:14:24.297Z,21.90
2022-08-30T03:16:53.444Z,21.88
2022-08-30T03:19:22.765Z,21.12
2022-08-30T03:21:51.613Z,21.40
2022-08-30T03:24:20.719Z,21.66
2022-08-30T03:26:49.616Z,21.47
2022-08-30T03:29:19.842Z,21.71
2022-08-30T03:31:53.182Z,21.81
2022-08-30T03:34:23.774Z,21.57
2022-08-30T03:36:53.675Z,21.65
2022-08-30T03:39:24.794Z,21.95
2022-08-30T03:41:54.044Z,21.83
2022-08-30T03:44:24.411Z,21.55
2022-08-30T03:46:53.668Z,21.72
2022-08-30T03:49:22.628Z,21.54
2022-08-30T03:51:52.179Z,21.81
2022-08-30T03:54:21.110Z,22.05
2022-08-30T03:56:50.251Z,21.67
2022-08-30T03:59:19.524Z,21.73
2022-08-30T04:01:49.729Z,21.87
2022-08-30T04:04:21.125Z,21.83
2022-08-30T04:06:50.701Z,21.68
2022-08-30T04:09:40.514Z,21.04
2022-08-30T04:12:09.733Z,21.48
2022-08-30T04:14:38.679Z,21.74
2022-08-30T04:17:08.981Z,20.92
2022-08-30T04:19:37.709Z,21.41
2022-08-30T04:22:07.085Z,21.91
2022-08-30T04:24:38.526Z,21.77
2022-08-30T04:27:07.787Z,21.32
2022-08-30T04:29:36.947Z,21.69
2022-08-30T04:32:06.466Z,21.47
2022-08-30T04:34:36.625Z,22.02
2022-08-30T04:37:05.657Z,21.85
2022-08-30T04:39:40.177Z,22.11
2022-08-30T04:42:10.860Z,22.54
2022-08-30T04:44:39.735Z,22.33
2022-08-30T04:47:10.412Z,22.73
2022-08-30T04:49:40.976Z,22.28
2022-08-30T04:52:11.065Z,22.87
2022-08-30T04:54:39.906Z,23.07
2022-08-30T04:57:08.851Z,23.25
2022-08-30T04:59:39.080Z,22.22
2022-08-30T05:02:09.568Z,22.84
2022-08-30T05:05:01.432Z,23.57
2022-08-30T05:07:30.709Z,22.50
2022-08-30T05:10:00.351Z,23.39
2022-08-30T05:12:29.534Z,22.70
2022-08-30T05:14:58.643Z,23.34
2022-08-30T05:17:27.662Z,23.15
2022-08-30T05:19:57.891Z,23.71
2022-08-30T05:22:26.734Z,23.29
2022-08-30T05:24:55.680Z,23.67
2022-08-30T05:27:24.660Z,23.06
2022-08-30T05:29:53.867Z,22.73
2022-08-30T05:32:22.915Z,22.83
2022-08-30T05:34:52.727Z,22.56
2022-08-30T05:37:23.081Z,22.87
2022-08-30T05:39:52.079Z,22.81
2022-08-30T05:42:21.235Z,22.48
2022-08-30T05:44:53.616Z,22.67
2022-08-30T05:47:23.570Z,23.03
2022-08-30T05:49:52.718Z,22.75
2022-08-30T05:52:23.215Z,22.92
2022-08-30T05:54:55.790Z,22.89
2022-08-30T05:57:24.561Z,23.66
2022-08-30T05:59:53.359Z,23.49
2022-08-30T06:02:22.164Z,23.74
2022-08-30T06:04:51.095Z,22.88
2022-08-30T06:07:23.158Z,23.29
2022-08-30T06:09:51.942Z,23.83
2022-08-30T06:12:21.010Z,23.79
2022-08-30T06:14:49.839Z,24.18
2022-08-30T06:17:23.058Z,24.52
2022-08-30T06:19:51.933Z,24.02
2022-08-30T06:22:22.083Z,23.51
2022-08-30T06:24:57.585Z,23.63
2022-08-30T06:27:26.984Z,23.99
2022-08-30T06:29:55.809Z,24.27
2022-08-30T06:32:24.764Z,24.20
2022-08-30T06:34:53.478Z,24.52
2022-08-30T06:37:29.792Z,24.36
2022-08-30T06:39:59.785Z,23.72
2022-08-30T06:42:32.346Z,24.14
2022-08-30T06:45:01.618Z,24.54
2022-08-30T06:47:30.806Z,24.25
2022-08-30T06:50:00.625Z,24.65
2022-08-30T06:52:31.612Z,25.17
2022-08-30T06:55:00.748Z,24.78
2022-08-30T06:57:29.645Z,25.00
2022-08-30T06:59:59.758Z,25.11
2022-08-30T07:02:29.710Z,24.22
2022-08-30T07:04:58.832Z,25.06
2022-08-30T07:07:28.109Z,25.13
2022-08-30T07:09:59.729Z,24.76
2022-08-30T07:12:29.138Z,24.81
2022-08-30T07:14:58.088Z,25.26
2022-08-30T07:17:44.191Z,25.03
2022-08-30T07:20:13.590Z,25.57
2022-08-30T07:22:42.551Z,25.03
2022-08-30T07:25:12.840Z,24.94
2022-08-30T07:27:43.203Z,25.41
2022-08-30T07:30:13.480Z,25.54
2022-08-30T07:32:42.925Z,25.40
2022-08-30T07:35:12.191Z,25.41
2022-08-30T07:37:41.199Z,25.72
2022-08-30T07:40:13.201Z,26.02
2022-08-30T07:42:42.426Z,25.79
2022-08-30T07:45:12.827Z,25.69
2022-08-30T07:47:42.687Z,25.69
2022-08-30T07:50:11.819Z,25.51
2022-08-30T07:52:41.067Z,25.80
2022-08-30T07:55:12.134Z,25.87
2022-08-30T07:57:42.045Z,26.12
2022-08-30T08:00:11.960Z,25.81
2022-08-30T08:02:42.001Z,25.79
2022-08-30T08:05:15.176Z,25.96
2022-08-30T08:07:46.249Z,25.68
2022-08-30T08:10:17.764Z,25.92
2022-08-30T08:12:46.449Z,26.01
2022-08-30T08:15:16.065Z,26.03
2022-08-30T08:17:44.993Z,26.36
2022-08-30T08:20:13.825Z,25.97
2022-08-30T08:22:42.675Z,26.20
2022-08-30T08:25:11.461Z,26.22
2022-08-30T08:27:41.875Z,26.14
2022-08-30T08:30:11.957Z,26.40
2022-08-30T08:32:43.519Z,26.34
2022-08-30T08:35:12.804Z,26.21
2022-08-30T08:37:42.625Z,25.76
2022-08-30T08:40:15.624Z,25.72
2022-08-30T08:42:52.545Z,26.17
2022-08-30T08:45:34.161Z,26.63
2022-08-30T08:48:09.649Z,26.41
2022-08-30T08:51:02.793Z,26.74
2022-08-30T08:53:46.629Z,26.54
2022-08-30T08:56:18.690Z,27.03
2022-08-30T08:58:51.883Z,27.32
2022-08-30T09:01:24.121Z,26.85
2022-08-30T09:03:53.742Z,26.62
2022-08-30T09:06:45.078Z,26.68
2022-08-30T09:09:15.639Z,26.44
2022-08-30T09:11:44.812Z,26.99
2022-08-30T09:14:20.519Z,26.98
2022-08-30T09:16:58.100Z,27.21
2022-08-30T09:19:39.920Z,27.79
2022-08-30T09:22:34.593Z,27.35
2022-08-30T09:25:06.096Z,27.44
2022-08-30T09:27:37.238Z,27.27
2022-08-30T09:30:14.860Z,27.61
2022-08-30T09:32:51.449Z,27.87
2022-08-30T09:35:23.869Z,27.37
2022-08-30T09:37:58.803Z,28.00
2022-08-30T09:40:34.665Z,27.90
2022-08-30T09:43:11.903Z,28.36
2022-08-30T09:45:44.215Z,28.68
2022-08-30T09:48:30.269Z,27.78
2022-08-30T09:51:20.888Z,28.13
2022-08-30T09:54:17.088Z,28.35
2022-08-30T09:56:57.946Z,28.26
2022-08-30T09:59:41.638Z,28.70
2022-08-30T10:02:48.328Z,27.99
2022-08-30T10:05:26.430Z,28.61
2022-08-30T10:08:03.119Z,28.08
2022-08-30T10:10:39.362Z,29.11
2022-08-30T10:13:38.447Z,28.72
2022-08-30T10:16:17.920Z,28.49
2022-08-30T10:19:00.885Z,27.67
2022-08-30T10:21:38.462Z,29.42
2022-08-30T10:24:11.931Z,31.19
2022-08-30T10:26:46.858Z,33.76
2022-08-30T10:29:23.509Z,36.20
2022-08-30T10:31:59.721Z,34.98
2022-08-30T10:34:40.099Z,35.02
2022-08-30T10:37:13.465Z,35.15
2022-08-30T10:39:50.477Z,32.64
2022-08-30T10:42:22.695Z,34.91
2022-08-30T10:44:59.119Z,38.44
2022-08-30T10:47:37.535Z,34.45
2022-08-30T10:50:19.870Z,34.48
2022-08-30T10:52:54.239Z,35.37
2022-08-30T10:55:27.182Z,37.35
2022-08-30T10:58:02.250Z,35.29
2022-08-30T11:00:37.506Z,38.72
2022-08-30T11:03:36.377Z,34.18
2022-08-30T11:06:19.608Z,37.56
2022-08-30T11:09:09.995Z,36.04
2022-08-30T11:11:53.510Z,36.20
2022-08-30T11:14:25.416Z,39.61
2022-08-30T11:16:57.710Z,39.02
2022-08-30T11:19:32.211Z,40.33
2022-08-30T11:22:15.214Z,36.36
2022-08-30T11:25:09.905Z,37.70
2022-08-30T11:27:51.990Z,37.20
2022-08-30T11:30:52.851Z,38.82
2022-08-30T11:33:44.986Z,37.89
2022-08-30T11:36:48.219Z,38.27
2022-08-30T11:45:46.583Z,40.08
2022-08-30T11:48:54.277Z,38.57
2022-08-30T11:55:03.825Z,39.28
2022-08-30T11:57:46.586Z,39.95
2022-08-30T12:00:31.506Z,41.37
2022-08-30T12:03:06.468Z,41.99
2022-08-30T12:05:53.058Z,39.98
2022-08-30T12:08:47.263Z,41.80
2022-08-30T12:12:02.534Z,39.07
2022-08-30T12:14:57.684Z,39.05
2022-08-30T12:17:50.706Z,43.25
2022-08-30T12:20:25.275Z,41.92
2022-08-30T12:22:55.481Z,43.46
2022-08-30T12:25:32.073Z,38.90
2022-08-30T12:28:12.939Z,40.44
2022-08-30T12:30:46.515Z,43.14
2022-08-30T12:33:29.323Z,41.22
2022-08-30T12:35:59.790Z,41.25
2022-08-30T12:38:30.917Z,40.27
2022-08-30T12:41:05.705Z,42.97
2022-08-30T12:43:41.355Z,41.19
2022-08-30T12:46:16.185Z,40.81
2022-08-30T12:48:46.312Z,40.54
2022-08-30T12:51:31.525Z,43.31
2022-08-30T12:54:16.548Z,42.22
2022-08-30T12:56:56.051Z,42.79
2022-08-30T12:59:59.635Z,43.77
2022-08-30T13:02:44.633Z,38.75
2022-08-30T13:05:33.335Z,39.27
2022-08-30T13:08:21.311Z,38.82
2022-08-30T13:10:55.288Z,43.97
2022-08-30T13:13:37.539Z,43.50
2022-08-30T13:16:29.425Z,42.97
2022-08-30T13:19:27.760Z,43.21
2022-08-30T13:21:58.291Z,42.45
2022-08-30T13:24:27.309Z,42.30
2022-08-30T13:26:57.939Z,40.45
2022-08-30T13:29:28.184Z,40.73
2022-08-30T13:31:58.193Z,44.19
2022-08-30T13:34:33.140Z,40.79
2022-08-30T13:37:02.701Z,44.61
2022-08-30T13:39:32.026Z,40.77
2022-08-30T13:44:52.407Z,42.71
2022-08-30T13:47:38.121Z,42.79
2022-08-30T13:50:09.849Z,41.77
2022-08-30T13:52:38.558Z,41.19
2022-08-30T13:55:08.882Z,42.07
2022-08-30T13:57:55.062Z,39.84
2022-08-30T14:00:25.436Z,39.02
2022-08-30T14:02:57.629Z,40.29
2022-08-30T14:11:12.735Z,38.23
2022-08-30T14:16:33.029Z,39.58
2022-08-30T14:19:02.964Z,38.79
2022-08-30T14:21:33.402Z,41.22
2022-08-30T14:24:02.293Z,40.59
2022-08-30T14:26:33.676Z,39.26
2022-08-30T14:29:03.108Z,36.95
2022-08-30T14:31:32.717Z,38.38
2022-08-30T14:34:04.236Z,41.28
2022-08-30T14:36:38.226Z,38.92
2022-08-30T14:39:10.728Z,40.90
2022-08-30T14:41:46.787Z,38.50
2022-08-30T14:44:18.012Z,40.84
2022-08-30T14:46:47.426Z,40.33
2022-08-30T14:49:17.881Z,38.86
2022-08-30T14:51:48.565Z,40.26
2022-08-30T14:54:18.986Z,41.60
2022-08-30T14:56:48.293Z,41.43
2022-08-30T14:59:18.425Z,42.52
2022-08-30T15:01:48.027Z,39.83
2022-08-30T15:04:18.098Z,34.24
2022-08-30T15:06:52.534Z,32.43
2022-08-30T15:09:24.779Z,31.76
2022-08-30T15:11:55.203Z,32.83
2022-08-30T15:14:28.548Z,32.58
2022-08-30T15:16:58.355Z,31.01
2022-08-30T15:19:28.910Z,33.17
2022-08-30T15:22:03.508Z,36.14
2022-08-30T15:24:33.576Z,37.92
2022-08-30T15:27:04.203Z,36.46
2022-08-30T15:29:35.150Z,35.75
2022-08-30T15:32:06.304Z,37.58
2022-08-30T15:34:35.963Z,37.38
2022-08-30T15:37:07.868Z,36.23
2022-08-30T15:39:37.957Z,37.17
2022-08-30T15:42:10.100Z,34.04
2022-08-30T15:44:39.743Z,35.35
2022-08-30T15:47:09.130Z,35.07
2022-08-30T15:49:38.409Z,34.88
2022-08-30T15:52:08.928Z,32.56
2022-08-30T15:54:37.930Z,31.26
2022-08-30T15:57:06.892Z,30.24
2022-08-30T15:59:35.937Z,29.54
2022-08-30T16:02:05.248Z,29.10
2022-08-30T16:04:34.610Z,28.95
2022-08-30T16:07:03.740Z,28.68
2022-08-30T16:09:35.201Z,28.24
2022-08-30T16:12:07.993Z,28.16
2022-08-30T16:14:43.333Z,28.15
2022-08-30T16:17:14.119Z,28.19
2022-08-30T16:19:43.317Z,28.13
2022-08-30T16:22:12.316Z,27.83
2022-08-30T16:24:46.986Z,27.49
2022-08-30T16:27:16.251Z,27.43
2022-08-30T16:29:45.353Z,27.43
2022-08-30T16:32:14.195Z,27.19
2022-08-30T16:34:43.230Z,27.20
2022-08-30T16:37:12.081Z,27.07
2022-08-30T16:39:41.405Z,27.10
2022-08-30T16:42:20.943Z,26.99
2022-08-30T16:44:50.497Z,27.06
2022-08-30T16:47:21.505Z,26.79
2022-08-30T16:49:51.999Z,26.73
2022-08-30T16:52:22.390Z,26.52
2022-08-30T16:54:52.306Z,26.60
2022-08-30T16:57:23.864Z,26.31
2022-08-30T16:59:52.886Z,26.57
2022-08-30T17:02:22.562Z,26.45
2022-08-30T17:04:53.155Z,26.33
2022-08-30T17:07:22.953Z,26.33
2022-08-30T17:09:52.811Z,26.26
2022-08-30T17:12:23.709Z,26.18
2022-08-30T17:14:53.552Z,26.11
2022-08-30T17:17:22.619Z,25.98
2022-08-30T17:19:52.245Z,25.84
2022-08-30T17:22:22.287Z,25.80
2022-08-30T17:24:52.411Z,25.82
2022-08-30T17:27:23.158Z,25.66
2022-08-30T17:29:52.375Z,25.52
2022-08-30T17:32:21.561Z,25.52
2022-08-30T17:34:53.639Z,25.41
2022-08-30T17:37:25.991Z,25.44
2022-08-30T17:39:58.422Z,24.81
2022-08-30T17:42:29.833Z,25.34
2022-08-30T17:45:03.586Z,25.39
2022-08-30T17:47:37.417Z,25.29
2022-08-30T17:50:09.075Z,25.26
2022-08-30T17:52:38.808Z,25.18
2022-08-30T17:55:11.171Z,25.12
2022-08-30T17:57:44.042Z,25.11
2022-08-30T18:00:15.850Z,25.04
2022-08-30T18:02:45.277Z,25.05
2022-08-30T18:05:14.151Z,25.05
2022-08-30T18:07:43.078Z,24.96
2022-08-30T18:10:13.403Z,24.93
2022-08-30T18:12:44.002Z,25.02
2022-08-30T18:15:15.984Z,24.95
2022-08-30T18:17:47.803Z,24.96
2022-08-30T18:20:18.324Z,24.87
2022-08-30T18:22:48.392Z,24.89
2022-08-30T18:25:27.334Z,24.92
2022-08-30T18:27:58.322Z,24.84
2022-08-30T18:30:34.054Z,24.71
2022-08-30T18:33:07.075Z,24.68
2022-08-30T18:35:36.473Z,24.74
2022-08-30T18:38:06.728Z,24.65
2022-08-30T18:40:36.109Z,24.50
2022-08-30T18:43:09.897Z,24.68
2022-08-30T18:45:42.870Z,24.63
2022-08-30T18:48:12.211Z,24.58
2022-08-30T18:50:43.955Z,24.56
2022-08-30T18:53:14.078Z,24.47
2022-08-30T18:55:58.623Z,24.47
2022-08-30T18:58:29.258Z,24.60
2022-08-30T19:00:58.317Z,24.84
2022-08-30T19:03:27.783Z,24.27
2022-08-30T19:06:05.085Z,24.88
2022-08-30T19:08:34.600Z,24.82
2022-08-30T19:11:05.050Z,24.84
2022-08-30T19:13:38.985Z,24.83
2022-08-30T19:16:12.186Z,24.82
2022-08-30T19:18:42.401Z,24.73
2022-08-30T19:21:13.535Z,24.22
2022-08-30T19:23:43.505Z,23.83
2022-08-30T19:26:12.349Z,24.34
2022-08-30T19:28:42.784Z,23.97
2022-08-30T19:31:12.383Z,24.30
2022-08-30T19:33:42.303Z,24.27
2022-08-30T19:36:11.756Z,24.28
2022-08-30T19:38:44.393Z,24.06
2022-08-30T19:41:14.602Z,23.83
2022-08-30T19:43:45.068Z,24.17
2022-08-30T19:46:18.611Z,24.16
2022-08-30T19:48:47.828Z,24.22
2022-08-30T19:51:17.316Z,23.95
2022-08-30T19:53:46.193Z,23.88
2022-08-30T19:56:15.193Z,23.81
2022-08-30T19:58:45.587Z,23.99
2022-08-30T20:01:33.203Z,23.52
2022-08-30T20:04:03.444Z,23.63
2022-08-30T20:06:33.769Z,23.62
2022-08-30T20:09:05.351Z,23.56
2022-08-30T20:11:42.367Z,23.62
2022-08-30T20:14:13.563Z,23.70
2022-08-30T20:16:43.160Z,23.55
2022-08-30T20:19:18.579Z,23.51
2022-08-30T20:21:50.941Z,23.52
2022-08-30T20:24:20.471Z,23.49
2022-08-30T20:26:49.520Z,23.31
2022-08-30T20:29:20.465Z,23.47
2022-08-30T20:31:52.023Z,23.51
2022-08-30T20:34:27.228Z,23.39
2022-08-30T20:36:56.350Z,23.39
2022-08-30T20:39:26.951Z,23.47
2022-08-30T20:41:55.809Z,23.27
2022-08-30T20:44:26.058Z,23.24
2022-08-30T20:46:54.982Z,23.22
2022-08-30T20:49:24.251Z,23.13
2022-08-30T20:51:54.213Z,23.10
2022-08-30T20:54:24.066Z,22.97
2022-08-30T20:56:53.083Z,23.03
2022-08-30T20:59:21.942Z,23.01
2022-08-30T21:01:52.070Z,22.95
2022-08-30T21:04:24.044Z,23.15
2022-08-30T21:06:53.130Z,22.88
2022-08-30T21:09:22.156Z,22.76
2022-08-30T21:11:51.170Z,22.82
2022-08-30T21:14:21.891Z,23.01
2022-08-30T21:16:52.408Z,22.84
2022-08-30T21:19:21.345Z,23.20
2022-08-30T21:21:50.195Z,23.17
2022-08-30T21:24:18.889Z,23.10
2022-08-30T21:26:47.722Z,22.95
2022-08-30T21:29:16.409Z,23.00
2022-08-30T21:31:45.299Z,22.81
2022-08-30T21:34:17.836Z,22.72
2022-08-30T21:36:46.079Z,23.00
2022-08-30T21:39:21.464Z,22.96
2022-08-30T21:41:54.495Z,22.28
2022-08-30T21:44:26.206Z,22.91
2022-08-30T21:46:56.362Z,22.66
2022-08-30T21:49:26.492Z,22.51
2022-08-30T21:51:56.606Z,22.56
2022-08-30T21:54:31.179Z,22.64
2022-08-30T21:57:02.067Z,22.70
2022-08-30T21:59:31.055Z,22.45
2022-08-30T22:02:01.061Z,22.75
2022-08-30T22:04:31.951Z,22.62
2022-08-30T22:07:02.332Z,22.59
2022-08-30T22:09:31.396Z,22.45
2022-08-30T22:12:00.768Z,22.28
2022-08-30T22:14:29.683Z,22.20
2022-08-30T22:16:59.041Z,22.20
2022-08-30T22:19:28.352Z,21.99
2022-08-30T22:22:04.342Z,21.91
2022-08-30T22:24:33.994Z,21.91
2022-08-30T22:27:05.206Z,21.92
2022-08-30T22:29:35.085Z,21.76
2022-08-30T22:32:04.651Z,21.73
2022-08-30T22:34:34.306Z,21.53
2022-08-30T22:37:04.985Z,21.71
2022-08-30T22:39:34.079Z,21.57
2022-08-30T22:42:03.241Z,21.36
2022-08-30T22:44:32.352Z,21.13
2022-08-30T22:47:02.094Z,21.30
2022-08-30T22:49:31.160Z,21.38
2022-08-30T22:52:00.945Z,21.25
2022-08-30T22:54:33.319Z,21.22
2022-08-30T22:57:04.470Z,21.03
2022-08-30T22:59:33.995Z,20.81
2022-08-30T23:02:03.372Z,20.98
2022-08-30T23:04:33.425Z,21.07
2022-08-30T23:07:02.411Z,21.12
2022-08-30T23:09:32.515Z,21.09
2022-08-30T23:12:01.518Z,20.95
2022-08-30T23:14:30.306Z,20.84
2022-08-30T23:16:59.462Z,20.93
2022-08-30T23:19:28.440Z,20.99
2022-08-30T23:21:57.570Z,20.86
2022-08-30T23:24:49.160Z,20.79
2022-08-30T23:27:37.011Z,20.86
2022-08-30T23:30:24.084Z,20.98
2022-08-30T23:33:11.532Z,20.90
2022-08-30T23:35:57.839Z,20.91
2022-08-30T23:38:44.278Z,20.76
2022-08-30T23:41:34.077Z,20.73
2022-08-30T23:44:22.308Z,20.78
2022-08-30T23:47:08.602Z,20.77
2022-08-30T23:49:54.829Z,20.21
2022-08-30T23:52:41.238Z,20.69
2022-08-30T23:55:27.813Z,20.34
2022-08-30T23:58:13.870Z,20.01
